»·PEaware :: WAT380 KSNA-KCOS

WAT380 :: KSNA-KCOS

FLIGHT INFORMATION

Flight Status: Arrived
Operator:
Walker Air Transport
More flights by this operator :: More flights under this callsign
Pilot: Spencer M. (27733)
Aircraft: DASSAULT AVIATION FALCON 50
(FA50)
More flights by this aircraft type
Origin: KSNA John Wayne-Orange Co
United States
Destination: KCOS City Of Colorado Springs Mun
United States
More flights between these airports :: More routes between these airports
Route: PIGGN2 AVRRY EED J8 CADDU RSK J44 ALS DBRY3
File this flight plan on PilotEdge
Remarks:
Altitude:
(Current/Filed)
45,000ft
Speed:
(Current/Filed)
470kts
Departed: 12-Jan-21 08:21 PM
Arrived: 12-Jan-21 10:18 PM
Distance/Time
Traveled:
706nm/1:56
Distance/Time
To Go:
Arrived

Flight Plot

Page will automatically refresh every two minutes.

Flight plan parsing failed; only flown route is shown


Map Options




Map Legend


Flown Route
Filed Route
Departure Airport
Arrival Airport
Navaid (VOR, NDB)
Fix

Horizontal Profiles

Position Reports

Time Latitude Longitude Heading Altitude Ground
Speed
12-Jan-21 19:34 33.671497 -117.867355 207 63ft 0kts
12-Jan-21 19:35 33.671497 -117.867355 207 63ft 0kts
12-Jan-21 19:36 33.671497 -117.867355 207 63ft 0kts
12-Jan-21 19:37 33.671497 -117.867355 207 63ft 0kts
12-Jan-21 19:38 33.671497 -117.867355 207 63ft 0kts
12-Jan-21 19:39 33.671497 -117.867355 207 63ft 0kts
12-Jan-21 19:40 33.671497 -117.867355 207 63ft 0kts
12-Jan-21 19:41 33.671497 -117.867355 207 63ft 0kts
12-Jan-21 19:42 33.671497 -117.867355 207 63ft 0kts
12-Jan-21 19:43 33.671497 -117.867355 207 63ft 0kts
12-Jan-21 19:44 33.671497 -117.867355 207 63ft 0kts
12-Jan-21 19:45 33.671497 -117.867355 207 63ft 0kts
12-Jan-21 19:46 33.671497 -117.867355 207 63ft 0kts
12-Jan-21 19:47 33.671497 -117.867355 207 63ft 0kts
12-Jan-21 19:48 33.671497 -117.867355 207 63ft 0kts
12-Jan-21 19:49 33.671497 -117.867355 207 63ft 0kts
12-Jan-21 19:50 33.671497 -117.867355 207 63ft 0kts
12-Jan-21 19:51 33.671497 -117.867355 207 63ft 0kts
12-Jan-21 19:52 33.671497 -117.867355 207 63ft 0kts
12-Jan-21 19:53 33.671497 -117.867355 207 63ft 0kts
12-Jan-21 19:54 33.671497 -117.867355 207 63ft 0kts
12-Jan-21 19:55 33.671497 -117.867355 207 63ft 0kts
12-Jan-21 19:56 33.671497 -117.867355 207 63ft 0kts
12-Jan-21 19:57 33.671497 -117.867355 207 63ft 0kts
12-Jan-21 19:58 33.671497 -117.867355 207 63ft 0kts
12-Jan-21 19:59 33.671497 -117.867355 207 63ft 0kts
12-Jan-21 20:00 33.671497 -117.867355 207 63ft 0kts
12-Jan-21 20:01 33.671497 -117.867355 207 63ft 0kts
12-Jan-21 20:02 33.671497 -117.867355 207 63ft 0kts
12-Jan-21 20:03 33.671497 -117.867355 207 63ft 0kts
12-Jan-21 20:04 33.671497 -117.867355 207 63ft 0kts
12-Jan-21 20:05 33.671497 -117.867355 207 63ft 0kts
12-Jan-21 20:06 33.671497 -117.867355 207 63ft 0kts
12-Jan-21 20:07 33.671497 -117.867355 207 63ft 0kts
12-Jan-21 20:08 33.671497 -117.867355 207 63ft 0kts
12-Jan-21 20:09 33.671465 -117.867380 217 63ft 0kts
12-Jan-21 20:10 33.671403 -117.867585 277 63ft 0kts
12-Jan-21 20:11 33.672519 -117.867859 29 63ft 8kts
12-Jan-21 20:12 33.673475 -117.866876 30 63ft 1kts
12-Jan-21 20:13 33.674464 -117.866251 28 63ft 6kts
12-Jan-21 20:14 33.676883 -117.864715 28 63ft 13kts
12-Jan-21 20:15 33.679427 -117.863104 27 63ft 6kts
12-Jan-21 20:16 33.680670 -117.863118 299 63ft 0kts
12-Jan-21 20:17 33.680682 -117.863146 298 63ft 0kts
12-Jan-21 20:18 33.680682 -117.863146 298 63ft 0kts
12-Jan-21 20:19 33.681270 -117.865321 212 63ft 11kts
12-Jan-21 20:20 33.654240 -117.882265 207 1054ft 173kts
12-Jan-21 20:21 33.596784 -117.895610 187 3551ft 238kts
12-Jan-21 20:22 33.534525 -117.876457 151 6554ft 238kts
12-Jan-21 20:23 33.491673 -117.818785 112 9570ft 249kts
12-Jan-21 20:24 33.478186 -117.732920 82 12691ft 296kts
12-Jan-21 20:25 33.510472 -117.636051 57 15558ft 343kts
12-Jan-21 20:26 33.561458 -117.529175 56 18501ft 371kts
12-Jan-21 20:27 33.581819 -117.404197 88 21187ft 399kts
12-Jan-21 20:28 33.578210 -117.267973 86 23473ft 412kts
12-Jan-21 20:29 33.599715 -117.134021 71 25558ft 413kts
12-Jan-21 20:30 33.626699 -116.998705 79 27100ft 430kts
12-Jan-21 20:31 33.625455 -116.854582 87 29098ft 430kts
12-Jan-21 20:32 33.621638 -116.712396 86 30947ft 425kts
12-Jan-21 20:33 33.617774 -116.571408 84 32656ft 421kts
12-Jan-21 20:34 33.613794 -116.432340 83 34343ft 414kts
12-Jan-21 20:35 33.609851 -116.294771 83 35716ft 412kts
12-Jan-21 20:36 33.606415 -116.158099 82 36977ft 411kts
12-Jan-21 20:37 33.610011 -116.023298 64 38080ft 390kts
12-Jan-21 20:38 33.647131 -115.903578 59 39109ft 383kts
12-Jan-21 20:39 33.685069 -115.783718 60 39842ft 387kts
12-Jan-21 20:40 33.723059 -115.662887 60 40609ft 389kts
12-Jan-21 20:41 33.771482 -115.550443 37 41217ft 370kts
12-Jan-21 20:42 33.847120 -115.469054 35 41981ft 364kts
12-Jan-21 20:43 33.922931 -115.388185 35 42484ft 366kts
12-Jan-21 20:44 33.999181 -115.306555 35 42927ft 369kts
12-Jan-21 20:45 34.075463 -115.224665 35 43353ft 369kts
12-Jan-21 20:47 34.151367 -115.142881 35 44158ft 359kts
12-Jan-21 20:48 34.225416 -115.062959 35 45050ft 343kts
12-Jan-21 20:49 34.296138 -114.986538 35 45379ft 338kts
12-Jan-21 20:50 34.366773 -114.910061 35 45332ft 343kts
12-Jan-21 20:51 34.438224 -114.832442 36 45332ft 347kts
12-Jan-21 20:52 34.509871 -114.754396 35 45331ft 349kts
12-Jan-21 20:53 34.582499 -114.675099 36 45330ft 353kts
12-Jan-21 20:54 34.656164 -114.594544 36 44797ft 371kts
12-Jan-21 20:55 34.736630 -114.504994 42 43144ft 423kts
12-Jan-21 20:56 34.782459 -114.365225 72 41324ft 468kts
12-Jan-21 20:57 34.804579 -114.211971 73 41328ft 456kts
12-Jan-21 20:58 34.826595 -114.060060 73 41350ft 456kts
12-Jan-21 20:59 34.848635 -113.907296 73 41366ft 462kts
12-Jan-21 21:00 34.870735 -113.752407 73 41369ft 466kts
12-Jan-21 21:01 34.892717 -113.596814 73 41370ft 468kts
12-Jan-21 21:02 34.914505 -113.441143 73 41370ft 468kts
12-Jan-21 21:03 34.936198 -113.284669 74 41368ft 469kts
12-Jan-21 21:03 34.954165 -113.153923 74 41368ft 469kts
12-Jan-21 21:05 34.982934 -112.973323 65 41375ft 460kts
12-Jan-21 21:06 35.034164 -112.832487 58 41389ft 453kts
12-Jan-21 21:07 35.088069 -112.693953 58 41395ft 452kts
12-Jan-21 21:07 35.132730 -112.578754 58 41408ft 453kts
12-Jan-21 21:08 35.186573 -112.439306 58 41408ft 453kts
12-Jan-21 21:10 35.249038 -112.276745 59 41406ft 454kts
12-Jan-21 21:10 35.293516 -112.160484 59 41405ft 454kts
12-Jan-21 21:11 35.346765 -112.020753 59 41403ft 453kts
12-Jan-21 21:12 35.399836 -111.880873 59 41405ft 453kts
12-Jan-21 21:13 35.452669 -111.741024 59 41408ft 452kts
12-Jan-21 21:14 35.505211 -111.601333 59 41410ft 451kts
12-Jan-21 21:15 35.557573 -111.461508 59 41410ft 451kts
12-Jan-21 21:16 35.609735 -111.321599 59 41409ft 451kts
12-Jan-21 21:17 35.661784 -111.181376 59 41409ft 451kts
12-Jan-21 21:18 35.713655 -111.041007 59 41415ft 451kts
12-Jan-21 21:19 35.765257 -110.900733 59 41432ft 451kts
12-Jan-21 21:20 35.816886 -110.759765 59 41434ft 451kts
12-Jan-21 21:21 35.868252 -110.618871 59 41432ft 451kts
12-Jan-21 21:22 35.919303 -110.478210 59 41429ft 451kts
12-Jan-21 21:23 35.970534 -110.336419 59 41424ft 452kts
12-Jan-21 21:24 36.021463 -110.194834 59 41422ft 452kts
12-Jan-21 21:25 36.072334 -110.052743 59 41421ft 452kts
12-Jan-21 21:26 36.122835 -109.911029 59 41436ft 453kts
12-Jan-21 21:27 36.173580 -109.767972 60 41435ft 454kts
12-Jan-21 21:28 36.224086 -109.624909 60 41434ft 455kts
12-Jan-21 21:29 36.274446 -109.481601 59 41433ft 455kts
12-Jan-21 21:30 36.324802 -109.337621 60 41432ft 456kts
12-Jan-21 21:31 36.375074 -109.193188 60 41431ft 456kts
12-Jan-21 21:32 36.425226 -109.048417 60 41421ft 457kts
12-Jan-21 21:33 36.475126 -108.903685 60 41411ft 457kts
12-Jan-21 21:34 36.524807 -108.758882 60 41409ft 456kts
12-Jan-21 21:35 36.574123 -108.614458 60 41405ft 455kts
12-Jan-21 21:36 36.623405 -108.469434 60 41402ft 455kts
12-Jan-21 21:37 36.672481 -108.324307 61 41399ft 454kts
12-Jan-21 21:38 36.721247 -108.179410 61 41396ft 454kts
12-Jan-21 21:39 36.767975 -108.033043 65 41385ft 458kts
12-Jan-21 21:40 36.807756 -107.882821 65 41379ft 458kts
12-Jan-21 21:41 36.848376 -107.732170 65 41379ft 458kts
12-Jan-21 21:42 36.889091 -107.581479 65 41378ft 458kts
12-Jan-21 21:43 36.929583 -107.430799 65 41378ft 459kts
12-Jan-21 21:44 36.970013 -107.279490 65 41377ft 459kts
12-Jan-21 21:45 37.010198 -107.128223 65 41377ft 460kts
12-Jan-21 21:46 37.050312 -106.976297 65 41379ft 460kts
12-Jan-21 21:47 37.090235 -106.824203 65 41391ft 460kts
12-Jan-21 21:48 37.129953 -106.672023 65 41407ft 462kts
12-Jan-21 21:49 37.169690 -106.518828 65 41405ft 463kts
12-Jan-21 21:50 37.209069 -106.365996 65 41399ft 458kts
12-Jan-21 21:51 37.247787 -106.214866 66 41398ft 453kts
12-Jan-21 21:52 37.285966 -106.065013 65 40258ft 446kts
12-Jan-21 21:53 37.321268 -105.924545 64 37813ft 391kts
12-Jan-21 21:54 37.359381 -105.805951 50 35738ft 354kts
12-Jan-21 21:55 37.422549 -105.709964 43 33785ft 368kts
12-Jan-21 21:56 37.491515 -105.610376 43 31821ft 389kts
12-Jan-21 21:57 37.562760 -105.507181 44 29762ft 389kts
12-Jan-21 21:58 37.633509 -105.404478 44 27650ft 388kts
12-Jan-21 21:59 37.703946 -105.301921 45 25542ft 389kts
12-Jan-21 22:00 37.774366 -105.199046 46 23329ft 387kts
12-Jan-21 22:01 37.845459 -105.094883 46 21126ft 395kts
12-Jan-21 22:02 37.916286 -104.990720 46 18918ft 388kts
12-Jan-21 22:03 37.985994 -104.887908 46 16709ft 383kts
12-Jan-21 22:04 38.052259 -104.789733 46 14269ft 335kts
12-Jan-21 22:05 38.109612 -104.704677 46 12981ft 296kts
12-Jan-21 22:06 38.172635 -104.650314 0 13028ft 285kts
12-Jan-21 22:07 38.255182 -104.648634 358 13010ft 300kts
12-Jan-21 22:08 38.335321 -104.651653 346 12617ft 279kts
12-Jan-21 22:09 38.407675 -104.672296 346 10650ft 262kts
12-Jan-21 22:10 38.475347 -104.691428 346 8355ft 237kts
12-Jan-21 22:11 38.535360 -104.708602 346 8014ft 207kts
12-Jan-21 22:12 38.591789 -104.716215 359 8017ft 204kts
12-Jan-21 22:13 38.648252 -104.716068 358 8017ft 201kts
12-Jan-21 22:14 38.703128 -104.715713 359 7886ft 188kts
12-Jan-21 22:15 38.742737 -104.715490 359 7103ft 124kts
12-Jan-21 22:16 38.777693 -104.716014 1 6570ft 129kts
12-Jan-21 22:17 38.808496 -104.715943 0 6194ft 37kts
12-Jan-21 22:18 38.812301 -104.717276 197 6194ft 6kts
12-Jan-21 22:19 38.808760 -104.717329 180 6194ft 18kts
12-Jan-21 22:20 38.806265 -104.719271 294 6194ft 8kts

Navigation Log

Ident Type
Flight plan parsing failed, navigation log unavailable